Silver Lake, Michigan
Current Conditions -  °F | °C
As of 2:15 PM on Thursday 18 Dec 2014 (Local Time) from KLDM Reporting Station
Overcast Overcast  
Wind Chill: 23°   Ceiling: 1500
Heat Index: 31°   Visibility: 10mi
Dew Point: 25°   Wind: 9mph
Humidity: 79%   Direction: 350°N
Pressure: 30.19"   Gusts: NA
Location:  43.6851°N, 86.4584°W
Report Text: KLDM 181915Z AUTO 35008KT 10SM OVC015 M01/M04 A3019 RMK AO2 T10071040
Loading
Personal Weather Stations






























Interactive Weather Map New forecast layout! Learn more

10-Day Weather Forecast

Advertisements
Track Severe Weather on mobile